createdAt,value
2023-01-06T00:00:31.457Z,100666.41
2023-01-06T00:02:58.848Z,100665.59
2023-01-06T00:05:29.005Z,100653.22
2023-01-06T00:07:56.231Z,100656.88
2023-01-06T00:10:23.754Z,100649.84
2023-01-06T00:12:51.323Z,100650.72
2023-01-06T00:15:19.013Z,100661.31
2023-01-06T00:17:46.479Z,100594.13
2023-01-06T00:20:14.156Z,100660.44
2023-01-06T00:22:42.897Z,100585.63
2023-01-06T00:25:11.070Z,100658.72
2023-01-06T00:27:38.523Z,100653.44
2023-01-06T00:30:06.668Z,100661.44
2023-01-06T00:32:34.062Z,100650.84
2023-01-06T00:35:01.485Z,100651.72
2023-01-06T00:37:28.895Z,100658.84
2023-01-06T00:39:57.615Z,100595.34
2023-01-06T00:42:25.632Z,100657.16
2023-01-06T00:44:53.101Z,100648.34
2023-01-06T00:47:20.740Z,100648.34
2023-01-06T00:49:48.179Z,100644.81
2023-01-06T00:52:15.710Z,100637.81
2023-01-06T00:54:43.820Z,100607.03
2023-01-06T00:57:12.490Z,100650.25
2023-01-06T00:59:39.878Z,100643.97
2023-01-06T01:02:07.336Z,100646.69
2023-01-06T01:04:35.908Z,100637.03
2023-01-06T01:07:03.303Z,100636.13
2023-01-06T01:09:31.592Z,100571.94
2023-01-06T01:12:11.956Z,100644.19
2023-01-06T01:14:42.669Z,100583.19
2023-01-06T01:17:10.468Z,100558.84
2023-01-06T01:19:38.515Z,100645.22
2023-01-06T01:22:05.930Z,100639.78
2023-01-06T01:24:33.323Z,100631.84
2023-01-06T01:27:00.693Z,100627.50
2023-01-06T01:29:28.136Z,100625.78
2023-01-06T01:31:56.854Z,100622.47
2023-01-06T01:34:24.256Z,100635.50
2023-01-06T01:36:52.261Z,100619.63
2023-01-06T01:39:22.744Z,100623.16
2023-01-06T01:41:50.243Z,100624.06
2023-01-06T01:44:52.527Z,100624.06
2023-01-06T01:47:24.778Z,100623.22
2023-01-06T01:49:53.821Z,100632.06
2023-01-06T01:52:21.212Z,100622.34
2023-01-06T01:54:48.634Z,100562.03
2023-01-06T01:57:17.372Z,100620.63
2023-01-06T01:59:44.774Z,100627.78
2023-01-06T02:02:12.481Z,100567.56
2023-01-06T02:04:42.556Z,100614.53
2023-01-06T02:07:10.081Z,100610.19
2023-01-06T02:09:54.052Z,100606.59
2023-01-06T02:12:21.416Z,100615.47
2023-01-06T02:14:48.800Z,100597.94
2023-01-06T02:17:25.518Z,100591.97
2023-01-06T02:20:28.159Z,100601.50
2023-01-06T02:23:17.054Z,100607.75
2023-01-06T02:26:04.074Z,100527.19
2023-01-06T02:28:51.165Z,100591.81
2023-01-06T02:31:42.224Z,100540.41
2023-01-06T02:34:11.956Z,100576.06
2023-01-06T02:36:41.345Z,100573.44
2023-01-06T02:39:16.852Z,100471.72
2023-01-06T02:41:45.801Z,100511.25
2023-01-06T02:44:18.286Z,100569.88
2023-01-06T02:47:00.795Z,100576.94
2023-01-06T02:49:30.427Z,100557.94
2023-01-06T02:51:59.214Z,100563.84
2023-01-06T02:54:30.220Z,100493.34
2023-01-06T02:57:08.212Z,100482.16
2023-01-06T02:59:37.493Z,100497.63
2023-01-06T03:02:06.305Z,100548.84
2023-01-06T03:04:35.639Z,100470.69
2023-01-06T03:07:03.381Z,100472.53
2023-01-06T03:09:33.466Z,100534.06
2023-01-06T03:12:01.239Z,100546.28
2023-01-06T03:14:30.037Z,100478.50
2023-01-06T03:16:57.418Z,100535.69
2023-01-06T03:19:26.114Z,100525.13
2023-01-06T03:21:53.502Z,100531.34
2023-01-06T03:24:20.898Z,100529.59
2023-01-06T03:26:48.275Z,100525.19
2023-01-06T03:29:17.573Z,100533.13
2023-01-06T03:31:49.307Z,100439.53
2023-01-06T03:34:19.055Z,100525.25
2023-01-06T03:36:51.119Z,100527.03
2023-01-06T03:39:19.323Z,100526.19
2023-01-06T03:42:04.552Z,100525.31
2023-01-06T03:44:35.121Z,100524.44
2023-01-06T03:47:05.868Z,100533.31
2023-01-06T03:49:34.311Z,100527.16
2023-01-06T03:52:04.842Z,100523.63
2023-01-06T03:54:37.031Z,100427.28
2023-01-06T03:57:06.030Z,100517.47
2023-01-06T03:59:34.234Z,100448.63
2023-01-06T04:02:01.610Z,100472.69
2023-01-06T04:04:28.972Z,100507.75
2023-01-06T04:06:56.527Z,100505.25
2023-01-06T04:09:25.235Z,100505.19
2023-01-06T04:12:09.930Z,100494.59
2023-01-06T04:14:37.640Z,100486.00
2023-01-06T04:17:05.045Z,100488.50
2023-01-06T04:19:32.414Z,100500.03
2023-01-06T04:21:59.803Z,100485.00
2023-01-06T04:24:28.543Z,100491.16
2023-01-06T04:26:55.928Z,100484.16
2023-01-06T04:29:23.293Z,100483.28
2023-01-06T04:31:50.725Z,100484.22
2023-01-06T04:34:18.125Z,100478.94
2023-01-06T04:36:45.496Z,100483.28
2023-01-06T04:39:12.858Z,100474.59
2023-01-06T04:41:41.566Z,100461.31
2023-01-06T04:44:08.928Z,100460.50
2023-01-06T04:46:36.290Z,100464.91
2023-01-06T04:49:03.746Z,100456.97
2023-01-06T04:51:31.133Z,100474.59
2023-01-06T04:53:58.514Z,100468.44
2023-01-06T04:56:26.913Z,100459.69
2023-01-06T04:58:56.247Z,100460.50
2023-01-06T05:01:24.009Z,100417.66
2023-01-06T05:03:51.506Z,100434.81
2023-01-06T05:06:19.190Z,100401.31
2023-01-06T05:08:46.759Z,100442.13
2023-01-06T05:11:15.021Z,100437.72
2023-01-06T05:13:42.462Z,100444.72
2023-01-06T05:16:12.408Z,100414.81
2023-01-06T05:18:39.849Z,100446.28
2023-01-06T05:21:07.549Z,100435.69
2023-01-06T05:23:34.957Z,100431.28
2023-01-06T05:26:02.364Z,100443.50
2023-01-06T05:28:29.777Z,100358.47
2023-01-06T05:31:00.088Z,100431.84
2023-01-06T05:33:28.775Z,100419.50
2023-01-06T05:35:58.746Z,100426.41
2023-01-06T05:38:26.135Z,100436.03
2023-01-06T05:40:53.592Z,100355.28
2023-01-06T05:43:20.975Z,100445.47
2023-01-06T05:45:48.384Z,100430.34
2023-01-06T05:48:15.859Z,100360.88
2023-01-06T05:50:44.539Z,100435.41
2023-01-06T05:53:11.934Z,100442.34
2023-01-06T05:55:39.294Z,100419.41
2023-01-06T05:58:06.665Z,100426.34
2023-01-06T06:00:34.020Z,100427.13
2023-01-06T06:03:01.401Z,100435.00
2023-01-06T06:05:28.790Z,100425.25
2023-01-06T06:07:57.499Z,100422.47
2023-01-06T06:10:24.856Z,100417.97
2023-01-06T06:12:52.332Z,100420.56
2023-01-06T06:15:19.811Z,100414.25
2023-01-06T06:17:47.406Z,100418.63
2023-01-06T06:20:14.885Z,100408.88
2023-01-06T06:22:42.270Z,100395.88
2023-01-06T06:25:11.184Z,100407.91
2023-01-06T06:27:39.251Z,100386.72
2023-01-06T06:30:07.971Z,100394.59
2023-01-06T06:32:35.362Z,100407.75
2023-01-06T06:35:02.713Z,100411.16
2023-01-06T06:37:30.086Z,100419.03
2023-01-06T06:39:57.453Z,100395.88
2023-01-06T06:42:26.155Z,100396.66
2023-01-06T06:44:53.523Z,100393.00
2023-01-06T06:47:20.897Z,100395.34
2023-01-06T06:49:48.258Z,100397.94
2023-01-06T06:52:15.648Z,100396.84
2023-01-06T06:54:43.014Z,100394.13
2023-01-06T06:57:10.415Z,100398.41
2023-01-06T06:59:39.088Z,100393.81
2023-01-06T07:02:07.443Z,100389.25
2023-01-06T07:04:34.889Z,100389.00
2023-01-06T07:07:02.335Z,100390.56
2023-01-06T07:09:29.723Z,100381.56
2023-01-06T07:11:57.093Z,100383.09
2023-01-06T07:14:24.458Z,100379.38
2023-01-06T07:16:53.139Z,100361.28
2023-01-06T07:19:20.553Z,100379.13
2023-01-06T07:21:47.936Z,100387.16
2023-01-06T07:24:15.299Z,100395.66
2023-01-06T07:26:42.683Z,100404.31
2023-01-06T07:29:10.047Z,100397.13
2023-01-06T07:31:37.448Z,100397.94
2023-01-06T07:34:06.199Z,100402.13
2023-01-06T07:36:33.585Z,100404.84
2023-01-06T07:39:00.999Z,100401.81
2023-01-06T07:41:28.389Z,100384.06
2023-01-06T07:43:55.769Z,100394.53
2023-01-06T07:46:23.191Z,100374.97
2023-01-06T07:48:50.583Z,100390.69
2023-01-06T07:51:19.315Z,100387.97
2023-01-06T07:53:46.893Z,100397.56
2023-01-06T07:56:14.423Z,100397.56
2023-01-06T07:58:41.821Z,100397.50
2023-01-06T08:01:09.316Z,100396.56
2023-01-06T08:05:56.713Z,100398.34
2023-01-06T08:08:25.391Z,100390.31
2023-01-06T08:10:52.764Z,100381.53
2023-01-06T08:13:20.626Z,100396.56
2023-01-06T08:15:51.647Z,100387.91
2023-01-06T08:18:19.055Z,100387.72
2023-01-06T08:20:46.410Z,100381.53
2023-01-06T08:23:13.783Z,100387.81
2023-01-06T08:25:42.450Z,100385.88
2023-01-06T08:28:10.024Z,100377.84
2023-01-06T08:30:39.993Z,100392.03
2023-01-06T08:33:07.419Z,100386.59
2023-01-06T08:35:34.790Z,100391.81
2023-01-06T08:38:02.191Z,100387.41
2023-01-06T08:40:29.592Z,100400.34
2023-01-06T08:42:58.310Z,100400.28
2023-01-06T08:45:25.726Z,100402.00
2023-01-06T08:47:53.139Z,100391.41
2023-01-06T08:50:20.563Z,100407.31
2023-01-06T08:52:48.260Z,100396.72
2023-01-06T08:55:15.687Z,100395.84
2023-01-06T08:57:43.073Z,100408.22
2023-01-06T09:00:13.251Z,100405.56
2023-01-06T09:02:40.474Z,100407.47
2023-01-06T09:05:08.599Z,100403.88
2023-01-06T09:07:36.041Z,100400.28
2023-01-06T09:10:03.627Z,100397.78
2023-01-06T09:12:31.002Z,100406.44
2023-01-06T09:14:58.367Z,100408.22
2023-01-06T09:17:27.087Z,100419.63
2023-01-06T09:19:54.518Z,100414.47
2023-01-06T09:22:21.894Z,100423.22
2023-01-06T09:24:49.272Z,100418.75
2023-01-06T09:27:16.670Z,100417.91
2023-01-06T09:29:44.051Z,100431.16
2023-01-06T09:32:11.500Z,100432.94
2023-01-06T09:34:40.188Z,100432.09
2023-01-06T09:37:07.564Z,100443.47
2023-01-06T09:39:36.995Z,100427.66
2023-01-06T09:42:29.564Z,100425.72
2023-01-06T09:44:57.700Z,100438.09
2023-01-06T09:47:26.170Z,100433.81
2023-01-06T09:49:57.746Z,100435.38
2023-01-06T09:52:27.696Z,100431.84
2023-01-06T09:54:56.189Z,100416.88
2023-01-06T09:57:29.958Z,100446.91
2023-01-06T09:59:57.983Z,100448.69
2023-01-06T10:02:27.909Z,100445.09
2023-01-06T10:04:56.601Z,100449.50
2023-01-06T10:07:28.280Z,100454.72
2023-01-06T10:10:01.920Z,100395.16
2023-01-06T10:12:36.884Z,100436.91
2023-01-06T10:15:09.800Z,100436.06
2023-01-06T10:17:56.133Z,100439.56
2023-01-06T10:21:03.892Z,100421.94
2023-01-06T10:23:51.240Z,100418.44
2023-01-06T10:26:23.285Z,100424.59
2023-01-06T10:28:53.555Z,100416.56
2023-01-06T10:31:21.719Z,100399.44
2023-01-06T10:33:50.908Z,100424.44
2023-01-06T10:36:32.366Z,100379.34
2023-01-06T10:39:00.132Z,100434.97
2023-01-06T10:41:31.701Z,100434.88
2023-01-06T10:43:59.075Z,100428.63
2023-01-06T10:46:26.528Z,100426.84
2023-01-06T10:48:53.938Z,100431.22
2023-01-06T10:51:36.239Z,100439.16
2023-01-06T10:54:05.628Z,100427.72
2023-01-06T10:56:32.994Z,100348.63
2023-01-06T10:59:04.227Z,100417.88
2023-01-06T11:01:33.856Z,100426.69
2023-01-06T11:04:07.628Z,100416.94
2023-01-06T11:06:36.453Z,100418.75
2023-01-06T11:09:08.187Z,100407.91
2023-01-06T11:11:36.221Z,100424.28
2023-01-06T11:14:05.622Z,100372.00
2023-01-06T11:16:33.890Z,100374.56
2023-01-06T11:19:02.299Z,100431.13
2023-01-06T11:21:41.080Z,100436.44
2023-01-06T11:24:17.652Z,100431.13
2023-01-06T11:26:45.632Z,100422.25
2023-01-06T11:29:19.022Z,100379.50
2023-01-06T11:31:48.467Z,100353.03
2023-01-06T11:34:21.518Z,100451.59
2023-01-06T11:36:50.208Z,100449.84
2023-01-06T11:39:22.580Z,100448.84
2023-01-06T11:41:51.078Z,100447.97
2023-01-06T11:44:19.999Z,100447.03
2023-01-06T11:46:48.987Z,100445.19
2023-01-06T11:49:19.213Z,100446.78
2023-01-06T11:51:49.822Z,100427.88
2023-01-06T11:54:22.674Z,100450.41
2023-01-06T11:56:58.563Z,100445.00
2023-01-06T11:59:26.265Z,100442.28
2023-01-06T12:01:55.061Z,100442.28
2023-01-06T12:04:25.278Z,100443.16
2023-01-06T12:06:56.051Z,100438.84
2023-01-06T12:09:24.153Z,100438.00
2023-01-06T12:11:52.319Z,100432.63
2023-01-06T12:14:29.028Z,100440.50
2023-01-06T12:17:04.310Z,100450.16
2023-01-06T12:19:33.846Z,100450.00
2023-01-06T12:22:02.583Z,100447.25
2023-01-06T12:24:32.071Z,100451.53
2023-01-06T12:26:59.445Z,100445.25
2023-01-06T12:29:26.827Z,100445.06
2023-01-06T12:32:01.036Z,100459.00
2023-01-06T12:34:31.931Z,100423.31
2023-01-06T12:37:04.977Z,100450.06
2023-01-06T12:39:36.878Z,100388.19
2023-01-06T12:42:06.032Z,100399.31
2023-01-06T12:44:38.742Z,100451.34
2023-01-06T12:47:08.577Z,100448.63
2023-01-06T12:49:38.723Z,100410.13
2023-01-06T12:52:07.917Z,100443.22
2023-01-06T12:54:35.508Z,100412.53
2023-01-06T12:57:10.644Z,100368.59
2023-01-06T12:59:46.484Z,100423.38
2023-01-06T13:02:19.689Z,100453.25
2023-01-06T13:05:04.934Z,100457.53
2023-01-06T13:07:42.225Z,100459.44
2023-01-06T13:10:16.969Z,100465.59
2023-01-06T13:12:57.577Z,100466.44
2023-01-06T13:15:27.000Z,100394.31
2023-01-06T13:18:04.672Z,100460.34
2023-01-06T13:20:34.038Z,100463.00
2023-01-06T13:23:09.981Z,100463.88
2023-01-06T13:25:45.653Z,100464.84
2023-01-06T13:28:16.931Z,100452.13
2023-01-06T13:31:23.331Z,100355.03
2023-01-06T13:34:06.094Z,100457.13
2023-01-06T13:36:48.415Z,100456.50
2023-01-06T13:39:17.438Z,100392.31
2023-01-06T13:41:45.670Z,100477.47
2023-01-06T13:44:15.843Z,100464.47
2023-01-06T13:46:43.053Z,100476.78
2023-01-06T13:49:11.123Z,100407.41
2023-01-06T13:51:39.351Z,100478.50
2023-01-06T13:54:06.754Z,100478.50
2023-01-06T13:56:35.622Z,100429.88
2023-01-06T13:59:20.526Z,100481.25
2023-01-06T14:01:48.175Z,100450.47
2023-01-06T14:04:45.397Z,100418.81
2023-01-06T14:07:12.773Z,100382.13
2023-01-06T14:09:50.928Z,99914.44
2023-01-06T14:12:22.227Z,100432.94
2023-01-06T14:15:01.029Z,100483.59
2023-01-06T14:17:32.938Z,100474.00
2023-01-06T14:20:00.363Z,100481.19
2023-01-06T14:22:29.543Z,100460.06
2023-01-06T14:24:58.267Z,100491.94
2023-01-06T14:28:03.264Z,100489.31
2023-01-06T14:30:33.044Z,100429.34
2023-01-06T14:33:05.745Z,100469.13
2023-01-06T14:35:36.129Z,100426.34
2023-01-06T14:38:04.229Z,100456.56
2023-01-06T14:40:33.799Z,100489.16
2023-01-06T14:43:03.751Z,100429.22
2023-01-06T14:45:37.665Z,100470.47
2023-01-06T14:48:06.539Z,100485.91
2023-01-06T14:50:46.563Z,100490.41
2023-01-06T14:53:16.825Z,100411.81
2023-01-06T14:55:46.824Z,100464.28
2023-01-06T14:58:28.257Z,100494.91
2023-01-06T15:00:56.987Z,100503.97
2023-01-06T15:03:25.288Z,100499.63
2023-01-06T15:05:52.702Z,100512.00
2023-01-06T15:08:20.296Z,100518.25
2023-01-06T15:10:48.387Z,100511.28
2023-01-06T15:13:21.122Z,100500.56
2023-01-06T15:15:53.133Z,100516.75
2023-01-06T15:18:21.835Z,100522.22
2023-01-06T15:20:49.258Z,100531.97
2023-01-06T15:23:17.455Z,100520.31
2023-01-06T15:25:44.872Z,100539.22
2023-01-06T15:28:24.841Z,100537.50
2023-01-06T15:30:52.294Z,100537.66
2023-01-06T15:33:19.715Z,100535.91
2023-01-06T15:35:48.412Z,100536.88
2023-01-06T15:38:23.973Z,100546.81
2023-01-06T15:40:51.365Z,100546.91
2023-01-06T15:43:18.758Z,100540.75
2023-01-06T15:45:55.668Z,100548.78
2023-01-06T15:48:26.889Z,100546.97
2023-01-06T15:50:55.823Z,100535.16
2023-01-06T15:53:24.752Z,100479.38
2023-01-06T15:55:52.772Z,100485.78
2023-01-06T15:58:21.857Z,100536.75
2023-01-06T16:00:50.861Z,100484.59
2023-01-06T16:03:19.497Z,100533.81
2023-01-06T16:05:50.906Z,100551.13
2023-01-06T16:08:25.141Z,100552.06
2023-01-06T16:11:10.644Z,100537.31
2023-01-06T16:13:38.031Z,100547.84
2023-01-06T16:16:06.857Z,100551.50
2023-01-06T16:18:35.215Z,100533.47
2023-01-06T16:21:14.149Z,100555.94
2023-01-06T16:23:42.860Z,100557.91
2023-01-06T16:26:12.484Z,100503.66
2023-01-06T16:28:44.794Z,100514.88
2023-01-06T16:31:12.745Z,100560.63
2023-01-06T16:33:41.421Z,100560.69
2023-01-06T16:36:16.614Z,100562.53
2023-01-06T16:38:45.350Z,100557.25
2023-01-06T16:41:17.767Z,100565.25
2023-01-06T16:43:45.194Z,100562.69
2023-01-06T16:46:17.761Z,100549.16
2023-01-06T16:48:45.225Z,100561.88
2023-01-06T16:51:14.478Z,100561.97
2023-01-06T16:53:43.461Z,100564.69
2023-01-06T16:56:21.966Z,100565.53
2023-01-06T16:58:49.663Z,100487.41
2023-01-06T17:01:18.329Z,100570.13
2023-01-06T17:03:46.254Z,100504.00
2023-01-06T17:06:17.053Z,100570.25
2023-01-06T17:08:44.460Z,100478.41
2023-01-06T17:11:14.991Z,100569.44
2023-01-06T17:13:45.995Z,100574.72
2023-01-06T17:16:15.346Z,100583.56
2023-01-06T17:18:49.901Z,100575.69
2023-01-06T17:21:18.223Z,100515.69
2023-01-06T17:23:47.535Z,100486.25
2023-01-06T17:26:16.282Z,100561.78
2023-01-06T17:28:45.067Z,100563.56
2023-01-06T17:31:14.460Z,100567.22
2023-01-06T17:33:41.837Z,100569.84
2023-01-06T17:36:12.008Z,100575.09
2023-01-06T17:38:39.260Z,100579.56
2023-01-06T17:41:09.302Z,100586.66
2023-01-06T17:43:36.944Z,100577.00
2023-01-06T17:46:21.207Z,100580.53
2023-01-06T17:48:48.769Z,100517.09
2023-01-06T17:51:16.157Z,100580.59
2023-01-06T17:54:00.835Z,100584.16
2023-01-06T17:56:28.539Z,100588.59
2023-01-06T17:58:55.930Z,100591.31
2023-01-06T18:01:25.374Z,100584.34
2023-01-06T18:03:53.006Z,100594.94
2023-01-06T18:06:26.023Z,100596.75
2023-01-06T18:09:01.515Z,100542.78
2023-01-06T18:11:38.806Z,100603.91
2023-01-06T18:14:20.436Z,100539.47
2023-01-06T18:16:49.855Z,100601.31
2023-01-06T18:19:25.207Z,100553.34
2023-01-06T18:21:52.717Z,100602.34
2023-01-06T18:24:23.175Z,100581.03
2023-01-06T18:26:51.557Z,100594.66
2023-01-06T18:29:19.930Z,100540.88
2023-01-06T18:31:50.311Z,100616.59
2023-01-06T18:34:29.501Z,100553.78
2023-01-06T18:36:57.862Z,100562.19
2023-01-06T18:39:27.368Z,100588.03
2023-01-06T18:42:18.736Z,100603.50
2023-01-06T18:44:46.097Z,100604.53
2023-01-06T18:47:18.435Z,100548.00
2023-01-06T18:49:45.873Z,100604.53
2023-01-06T18:52:40.022Z,100600.94
2023-01-06T18:55:19.675Z,100605.53
2023-01-06T18:57:56.625Z,100594.00
2023-01-06T19:00:32.880Z,100594.00
2023-01-06T19:03:21.933Z,100596.72
2023-01-06T19:05:49.328Z,100589.78
2023-01-06T19:08:17.763Z,100562.69
2023-01-06T19:10:45.709Z,100601.41
2023-01-06T19:13:16.467Z,100595.97
2023-01-06T19:15:43.873Z,100594.22
2023-01-06T19:18:15.100Z,100556.47
2023-01-06T19:20:42.835Z,100589.94
2023-01-06T19:23:15.883Z,100548.16
2023-01-06T19:25:48.244Z,100592.72
2023-01-06T19:28:17.754Z,100598.00
2023-01-06T19:30:45.840Z,100563.75
2023-01-06T19:33:24.271Z,100600.66
2023-01-06T19:35:52.087Z,100581.59
2023-01-06T19:38:24.522Z,100590.34
2023-01-06T19:40:52.023Z,100587.56
2023-01-06T19:43:25.501Z,100544.78
2023-01-06T19:45:53.158Z,100599.03
2023-01-06T19:48:23.214Z,100595.63
2023-01-06T19:50:50.887Z,100593.81
2023-01-06T19:53:32.315Z,100599.97
2023-01-06T19:56:01.858Z,100596.53
2023-01-06T19:58:34.391Z,100527.16
2023-01-06T20:01:01.846Z,100604.53
2023-01-06T20:03:31.187Z,100596.59
2023-01-06T20:05:58.675Z,100601.06
2023-01-06T20:08:26.081Z,100603.69
2023-01-06T20:10:53.493Z,100595.91
2023-01-06T20:13:20.879Z,100561.50
2023-01-06T20:15:48.325Z,100600.19
2023-01-06T20:18:15.712Z,100592.31
2023-01-06T20:20:44.533Z,100587.03
2023-01-06T20:23:12.033Z,100594.16
2023-01-06T20:25:39.423Z,100596.81
2023-01-06T20:28:06.815Z,100600.38
2023-01-06T20:30:34.212Z,100607.44
2023-01-06T20:33:02.045Z,100612.81
2023-01-06T20:35:29.451Z,100597.81
2023-01-06T20:37:58.140Z,100594.28
2023-01-06T20:40:25.557Z,100596.09
2023-01-06T20:42:52.952Z,100600.53
2023-01-06T20:45:20.838Z,100507.63
2023-01-06T20:47:48.298Z,100600.53
2023-01-06T20:50:15.700Z,100591.84
2023-01-06T20:52:43.238Z,100502.72
2023-01-06T20:55:12.055Z,100612.94
2023-01-06T20:57:39.450Z,100610.28
2023-01-06T21:00:09.496Z,100553.47
2023-01-06T21:02:37.093Z,100598.06
2023-01-06T21:05:05.062Z,100598.94
2023-01-06T21:07:33.331Z,100601.59
2023-01-06T21:10:00.761Z,100569.84
2023-01-06T21:12:29.720Z,100601.59
2023-01-06T21:14:57.113Z,100596.31
2023-01-06T21:17:24.531Z,100601.66
2023-01-06T21:19:51.896Z,100605.22
2023-01-06T21:22:19.308Z,100610.50
2023-01-06T21:24:46.693Z,100609.66
2023-01-06T21:27:14.113Z,100608.84
2023-01-06T21:29:42.859Z,100580.03
2023-01-06T21:32:10.341Z,100592.13
2023-01-06T21:34:37.720Z,100595.63
2023-01-06T21:37:05.134Z,100578.31
2023-01-06T21:39:32.529Z,100495.06
2023-01-06T21:42:18.110Z,100598.34
2023-01-06T21:44:46.867Z,100595.75
2023-01-06T21:47:14.462Z,100597.47
2023-01-06T21:49:43.226Z,100597.47
2023-01-06T21:52:10.987Z,100575.88
2023-01-06T21:54:38.407Z,100589.59
2023-01-06T21:57:05.804Z,100599.34
2023-01-06T21:59:33.350Z,100567.81
2023-01-06T22:02:02.263Z,100582.53
2023-01-06T22:04:29.702Z,100591.41
2023-01-06T22:06:57.676Z,100588.75
2023-01-06T22:09:25.059Z,100594.06
2023-01-06T22:11:52.515Z,100594.06
2023-01-06T22:14:19.892Z,100591.41
2023-01-06T22:16:47.302Z,100587.03
2023-01-06T22:19:16.039Z,100592.31
2023-01-06T22:21:43.871Z,100593.19
2023-01-06T22:24:11.915Z,100597.59
2023-01-06T22:26:39.314Z,100596.78
2023-01-06T22:29:08.051Z,100595.91
2023-01-06T22:31:35.627Z,100544.28
2023-01-06T22:34:03.046Z,100592.38
2023-01-06T22:36:31.789Z,100595.09
2023-01-06T22:38:59.183Z,100596.91
2023-01-06T22:41:26.578Z,100604.78
2023-01-06T22:43:53.956Z,100602.19
2023-01-06T22:46:21.472Z,100604.03
2023-01-06T22:48:48.958Z,100595.16
2023-01-06T22:51:16.355Z,100604.03
2023-01-06T22:53:45.091Z,100603.16
2023-01-06T22:56:12.784Z,100527.31
2023-01-06T22:58:40.779Z,100589.09
2023-01-06T23:01:08.548Z,100592.56
2023-01-06T23:03:36.195Z,100499.91
2023-01-06T23:06:05.115Z,100604.09
2023-01-06T23:08:33.495Z,100598.81
2023-01-06T23:11:03.487Z,100536.06
2023-01-06T23:13:31.102Z,100565.44
2023-01-06T23:16:02.408Z,100552.56
2023-01-06T23:18:30.770Z,100553.41
2023-01-06T23:20:59.500Z,100598.06
2023-01-06T23:23:26.894Z,100599.88
2023-01-06T23:25:54.326Z,100596.28
2023-01-06T23:28:23.042Z,100596.31
2023-01-06T23:30:50.439Z,100593.69
2023-01-06T23:33:17.850Z,100598.09
2023-01-06T23:35:45.232Z,100602.56
2023-01-06T23:38:12.611Z,100588.47
2023-01-06T23:40:39.995Z,100588.53
2023-01-06T23:43:07.374Z,100580.59
2023-01-06T23:45:36.059Z,100581.41
2023-01-06T23:48:03.458Z,100572.03
2023-01-06T23:50:30.829Z,100580.66
2023-01-06T23:52:58.205Z,100573.91
2023-01-06T23:55:25.589Z,100585.00
2023-01-06T23:57:52.967Z,100580.66
